Time;durP1;ratioP1;P1;durP2;ratioP2;P2;SDS_P1;SDS_P2;PMS_P1;PMS_P2;Temp;Humidity;BMP_temperature;BMP_pressure;BME280_temperature;BME280_humidity;BME280_pressure;Samples;Min_cycle;Max_cycle;Signal;HPM_P1;HPM_P2
2020/12/01 00:02:44;;;;;;;38.33;18.23;;;;;;;1.11;79.23;101518.63;126191;1105;103124;-82
2020/12/01 00:05:28;;;;;;;43.70;19.07;;;;;;;1.11;79.37;101527.31;126288;1105;104904;-81
2020/12/01 00:12:20;;;;;;;40.30;19.03;;;;;;;1.07;79.39;101518.35;126341;1102;102795;-81
2020/12/01 00:15:17;;;;;;;40.63;20.60;;;;;;;1.07;79.48;101520.94;126474;1101;103133;-82
2020/12/01 00:18:23;;;;;;;39.20;19.30;;;;;;;1.10;79.05;101527.18;127415;1101;102721;-80
2020/12/01 00:21:43;;;;;;;43.33;20.83;;;;;;;1.10;79.28;101532.34;127155;1102;104603;-82
2020/12/01 00:24:54;;;;;;;41.23;19.17;;;;;;;1.06;78.87;101518.22;126437;1102;102860;-81
2020/12/01 00:27:42;;;;;;;43.60;19.60;;;;;;;1.14;78.87;101521.48;126924;1101;103180;-82
2020/12/01 00:41:10;;;;;;;41.77;21.27;;;;;;;1.03;78.68;101531.80;126974;1101;104359;-80
2020/12/01 00:44:07;;;;;;;;;;;;;;;;;;;;;
2020/12/01 00:53:26;;;;;;;47.37;22.90;;;;;;;1.09;79.27;101531.42;127724;1098;103731;-80
2020/12/01 00:56:09;;;;;;;43.63;22.33;;;;;;;1.09;79.27;101536.59;126455;1102;103242;-81
2020/12/01 01:05:40;;;;;;;40.13;18.97;;;;;;;1.04;78.89;101519.77;126086;1105;104529;-83
2020/12/01 01:18:33;;;;;;;40.63;19.37;;;;;;;0.96;78.79;101528.52;125841;1107;103375;-85
2020/12/01 01:36:03;;;;;;;39.63;18.32;;;;;;;0.89;79.10;101514.14;126107;1102;103126;-82
2020/12/01 01:39:13;;;;;;;44.67;22.30;;;;;;;0.87;78.91;101515.66;126254;1102;102908;-82
2020/12/01 01:42:08;;;;;;;38.67;18.60;;;;;;;0.87;79.21;101518.24;126365;1105;103366;-82
2020/12/01 01:56:01;;;;;;;41.77;18.93;;;;;;;0.77;78.77;101513.02;126045;1104;103194;-82
2020/12/01 01:59:18;;;;;;;41.97;19.57;;;;;;;0.69;78.82;101501.98;126205;1105;104635;-80
2020/12/01 02:02:44;;;;;;;45.77;21.53;;;;;;;0.71;78.78;101510.78;125818;1105;103267;-81
2020/12/01 02:05:50;;;;;;;35.10;16.63;;;;;;;0.73;78.75;101518.67;126102;1102;103232;-81
2020/12/01 02:08:41;;;;;;;38.73;20.37;;;;;;;0.73;78.81;101523.84;127646;1102;102986;-81
2020/12/01 02:14:54;;;;;;;38.03;19.30;;;;;;;0.73;78.82;101518.67;126627;1102;103309;-79
2020/12/01 02:24:37;;;;;;;41.03;19.97;;;;;;;0.59;78.88;101523.47;126523;1101;103166;-80
2020/12/01 02:30:27;;;;;;;40.63;18.70;;;;;;;0.51;78.66;101519.28;127079;1101;103824;-78
2020/12/01 02:44:19;;;;;;;44.33;21.23;;;;;;;0.30;78.73;101519.12;126741;1098;104455;-81
2020/12/01 02:47:31;;;;;;;39.97;18.27;;;;;;;0.31;78.53;101515.78;126469;1099;104814;-82
2020/12/01 02:50:21;;;;;;;35.87;16.67;;;;;;;0.31;78.88;101518.36;127463;1101;102943;-81
2020/12/01 02:56:45;;;;;;;41.83;19.70;;;;;;;0.30;79.01;101520.80;126825;1101;103234;-80
2020/12/01 02:59:33;;;;;;;41.57;19.70;;;;;;;0.28;78.81;101522.31;126760;1098;104592;-81
2020/12/01 03:03:01;;;;;;;43.10;20.70;;;;;;;0.21;78.45;101526.00;126411;1102;104590;-80
2020/12/01 03:06:15;;;;;;;40.60;19.77;;;;;;;0.20;78.58;101529.34;126428;1105;102991;-81
2020/12/01 03:09:22;;;;;;;36.57;17.33;;;;;;;0.16;78.74;101529.84;126307;1104;104662;-81
2020/12/01 03:15:28;;;;;;;41.23;20.63;;;;;;;0.13;79.02;101527.87;125914;1105;102963;-81
2020/12/01 03:18:40;;;;;;;40.63;18.80;;;;;;;0.10;78.61;101527.58;126041;1105;103349;-80
2020/12/01 03:22:07;;;;;;;37.27;16.73;;;;;;;0.05;78.97;101533.06;125994;1105;104668;-82
2020/12/01 03:24:54;;;;;;;42.17;19.30;;;;;;;-0.02;78.88;101532.52;125802;1104;104662;-81
2020/12/01 03:27:44;;;;;;;46.37;22.00;;;;;;;-0.04;78.78;101534.02;126101;1105;103491;-81
2020/12/01 03:30:18;;;;;;;44.30;20.17;;;;;;;-0.02;78.79;101536.75;126057;1105;103219;-81
2020/12/01 03:43:43;;;;;;;44.87;19.77;;;;;;;-0.14;78.92;101528.77;125728;1102;104392;-80
2020/12/01 03:50:36;;;;;;;46.40;20.00;;;;;;;-0.21;78.50;101521.20;126297;1101;103450;-80
2020/12/01 03:57:08;;;;;;;39.30;17.37;;;;;;;-0.29;78.71;101530.78;126328;1101;103278;-81
2020/12/01 04:03:49;;;;;;;39.87;18.07;;;;;;;-0.42;78.56;101536.45;127418;1101;102843;-81
2020/12/01 04:38:37;;;;;;;43.13;21.23;;;;;;;-0.52;78.52;101544.05;126715;1098;103079;-79
2020/12/01 04:59:23;;;;;;;;;;;;;;;-0.66;78.67;101559.86;126578;1104;103458;-82
2020/12/01 05:37:14;;;;;;;49.67;21.97;;;;;;;-0.80;78.08;101549.09;126595;1101;103191;-86
2020/12/01 05:39:57;;;;;;;48.17;21.40;;;;;;;-0.83;79.07;101547.90;126659;1101;103252;-82
2020/12/01 05:43:13;;;;;;;45.23;21.10;;;;;;;-0.88;78.15;101546.55;126260;1102;103195;-84
2020/12/01 05:46:26;;;;;;;54.13;24.33;;;;;;;-0.96;78.40;101532.91;127090;1101;102770;-85
2020/12/01 05:49:07;;;;;;;45.80;20.17;;;;;;;-0.92;79.03;101541.09;126295;1100;103115;-87
2020/12/01 05:51:40;;;;;;;49.27;23.93;;;;;;;-0.93;78.36;101540.95;126539;1098;103264;-84
2020/12/01 05:57:59;;;;;;;53.17;24.67;;;;;;;-0.84;78.44;101544.42;126127;1099;103151;-86
2020/12/01 06:00:58;;;;;;;48.77;21.93;;;;;;;-0.82;78.98;101548.05;126825;1098;102862;-86
2020/12/01 06:03:35;;;;;;;48.03;22.37;;;;;;;-0.80;78.39;101549.09;126155;1100;104462;-85
2020/12/01 06:06:11;;;;;;;51.27;22.73;;;;;;;-0.78;78.25;101552.75;126582;1099;104490;-83
2020/12/01 06:08:47;;;;;;;52.80;23.53;;;;;;;-0.77;78.82;101543.34;126452;1098;105259;-83
2020/12/01 06:11:33;;;;;;;43.83;20.63;;;;;;;-0.77;78.38;101546.82;127167;1098;104509;-84
2020/12/01 06:14:11;;;;;;;47.83;20.67;;;;;;;-0.75;78.48;101542.75;126988;1098;104538;-82
2020/12/01 06:16:46;;;;;;;49.67;22.57;;;;;;;-0.73;78.61;101542.90;126427;1098;103504;-84
2020/12/01 06:23:26;;;;;;;48.70;22.60;;;;;;;-0.64;78.92;101542.86;126758;1098;102983;-80
2020/12/01 06:30:12;;;;;;;51.23;23.23;;;;;;;-0.56;78.49;101545.44;126740;1098;104455;-81
2020/12/01 06:33:09;;;;;;;51.83;22.37;;;;;;;-0.55;78.04;101543.75;125662;1098;104608;-79
2020/12/01 06:36:00;;;;;;;51.10;23.18;;;;;;;-0.52;78.17;101541.47;126377;1098;102777;-79
2020/12/01 06:38:48;;;;;;;54.07;25.63;;;;;;;-0.49;79.05;101541.77;125738;1098;103836;-82
2020/12/01 06:41:23;;;;;;;49.07;22.33;;;;;;;-0.43;78.41;101539.78;127639;1098;102648;-79
2020/12/01 06:43:55;;;;;;;54.67;23.63;;;;;;;-0.42;78.06;101531.30;126458;1098;104499;-81
2020/12/01 06:46:37;;;;;;;51.57;24.27;;;;;;;-0.40;78.58;101539.17;126463;1098;103122;-87
2020/12/01 06:49:11;;;;;;;46.27;20.57;;;;;;;-0.37;78.21;101542.05;126445;1098;104684;-82
2020/12/01 06:51:52;;;;;;;40.93;18.03;;;;;;;-0.37;78.81;101527.47;126459;1098;104502;-81
2020/12/01 06:54:21;;;;;;;45.47;20.37;;;;;;;-0.31;77.99;101542.64;126451;1098;104640;-80
2020/12/01 06:56:59;;;;;;;54.00;23.87;;;;;;;-0.30;78.08;101534.12;126445;1098;104501;-81
2020/12/01 06:59:30;;;;;;;44.17;18.70;;;;;;;-0.27;78.42;101536.09;125600;1098;103247;-79
2020/12/01 07:02:22;;;;;;;49.33;21.57;;;;;;;-0.27;77.81;101530.94;125943;1096;104642;-78
2020/12/01 07:05:14;;;;;;;47.07;20.20;;;;;;;-0.24;78.40;101539.86;126138;1095;104615;-83
2020/12/01 07:07:44;;;;;;;48.83;23.00;;;;;;;-0.21;78.41;101539.26;126024;1094;103010;-82
2020/12/01 07:10:31;;;;;;;47.63;21.20;;;;;;;-0.20;78.39;101535.92;126236;1092;104011;-82
2020/12/01 07:13:11;;;;;;;53.93;22.17;;;;;;;-0.21;78.04;101540.16;126396;1092;104708;-80
2020/12/01 07:15:43;;;;;;;41.37;17.93;;;;;;;-0.17;78.21;101538.80;126332;1092;104497;-81
2020/12/01 07:18:22;;;;;;;39.90;16.60;;;;;;;-0.16;77.81;101527.70;125997;1094;104496;-83
2020/12/01 07:21:12;;;;;;;49.10;21.43;;;;;;;-0.17;78.17;101525.91;126596;1092;104573;-80
2020/12/01 07:23:59;;;;;;;51.57;23.37;;;;;;;-0.12;78.52;101516.91;126487;1093;103598;-79
2020/12/01 07:26:40;;;;;;;51.27;24.03;;;;;;;-0.11;77.72;101520.39;126451;1092;103851;-80
2020/12/01 07:29:40;;;;;;;51.97;21.73;;;;;;;-0.06;77.93;101538.14;125964;1095;102948;-80
2020/12/01 07:32:21;;;;;;;47.27;22.63;;;;;;;-0.02;78.12;101540.26;126737;1095;103542;-81
2020/12/01 07:35:12;;;;;;;44.40;19.87;;;;;;;0.03;77.57;101535.50;127139;1095;103384;-88
2020/12/01 07:37:57;;;;;;;51.20;21.83;;;;;;;0.07;77.77;101541.87;126733;1095;103228;-81
2020/12/01 07:40:44;;;;;;;44.57;20.53;;;;;;;0.13;77.97;101540.77;126470;1097;104852;-81
2020/12/01 07:43:18;;;;;;;44.73;20.97;;;;;;;0.13;77.64;101537.30;126720;1095;103457;-81
2020/12/01 07:45:47;;;;;;;54.90;22.27;;;;;;;0.14;77.91;101527.11;125934;1096;104509;-81
2020/12/01 07:48:21;;;;;;;43.97;21.30;;;;;;;0.13;77.96;101538.19;126734;1095;103367;-81
2020/12/01 07:50:49;;;;;;;46.00;19.35;;;;;;;0.10;77.95;101531.84;126056;1095;104458;-80
2020/12/01 07:53:21;;;;;;;47.55;20.85;;;;;;;0.09;77.78;101532.59;126079;1095;105112;-79
2020/12/01 07:56:02;;;;;;;56.70;24.30;;;;;;;0.14;77.99;101539.09;125752;1097;103904;-82
2020/12/01 07:58:38;;;;;;;53.67;22.20;;;;;;;0.22;78.22;101538.16;127657;1095;104532;-83
2020/12/01 08:01:21;;;;;;;51.53;22.87;;;;;;;0.34;77.91;101543.54;126043;1095;104964;-78
2020/12/01 08:04:10;;;;;;;39.77;18.10;;;;;;;0.39;77.84;101547.48;126101;1095;104565;-81
2020/12/01 08:07:03;;;;;;;51.45;22.75;;;;;;;0.35;77.97;101541.09;125722;1096;105606;-81
2020/12/01 08:09:33;;;;;;;44.33;19.47;;;;;;;0.32;77.32;101553.72;125951;1095;103454;-83
2020/12/01 08:12:07;;;;;;;43.67;18.70;;;;;;;0.26;77.72;101540.24;126209;1092;103496;-79
2020/12/01 08:14:53;;;;;;;44.93;21.13;;;;;;;0.23;77.78;101534.79;126477;1092;104638;-77
2020/12/01 08:17:26;;;;;;;48.87;20.77;;;;;;;0.22;77.73;101525.25;126346;1092;104691;-77
2020/12/01 08:19:56;;;;;;;45.50;20.93;;;;;;;0.17;77.81;101532.56;126315;1092;103499;-79
2020/12/01 08:22:34;;;;;;;43.20;17.97;;;;;;;0.21;77.69;101520.84;126323;1092;104969;-75
2020/12/01 08:25:12;;;;;;;46.67;21.33;;;;;;;0.24;77.81;101526.30;126382;1092;104395;-77
2020/12/01 08:27:56;;;;;;;39.05;17.10;;;;;;;0.29;77.77;101529.30;126528;1092;104951;-77
2020/12/01 08:30:39;;;;;;;43.33;19.00;;;;;;;0.35;77.68;101524.71;126416;1092;104682;-75
2020/12/01 08:33:17;;;;;;;41.50;18.40;;;;;;;0.41;77.37;101514.95;126364;1092;104449;-75
2020/12/01 08:35:59;;;;;;;40.67;18.47;;;;;;;0.44;77.31;101520.40;126472;1091;104449;-78
2020/12/01 08:39:10;;;;;;;39.80;16.73;;;;;;;0.49;77.23;101508.81;126396;1092;103099;-79
2020/12/01 08:41:50;;;;;;;41.77;18.50;;;;;;;0.56;77.20;101501.63;126189;1094;104535;-80
2020/12/01 08:44:33;;;;;;;39.77;18.77;;;;;;;0.60;77.38;101499.46;126889;1093;104567;-80
2020/12/01 08:47:07;;;;;;;50.90;20.73;;;;;;;0.63;77.13;101501.43;126836;1093;104584;-76
2020/12/01 08:49:52;;;;;;;43.30;20.40;;;;;;;0.66;77.10;101499.13;126506;1092;103117;-80
2020/12/01 08:52:42;;;;;;;46.67;20.13;;;;;;;0.69;77.08;101487.39;127327;1092;102717;-78
2020/12/01 08:55:39;;;;;;;36.97;17.10;;;;;;;0.73;77.11;101487.66;126016;1092;102925;-77
2020/12/01 08:58:31;;;;;;;;;;;;;;;;;;;;;
2020/12/01 09:01:23;;;;;;;37.30;15.20;;;;;;;0.92;76.85;101501.50;127587;1092;103059;-84
2020/12/01 09:04:04;;;;;;;37.67;17.27;;;;;;;0.89;77.07;101485.72;126812;1094;103442;-80
2020/12/01 09:06:36;;;;;;;36.95;14.95;;;;;;;0.93;77.30;101486.89;127229;1092;104487;-80
2020/12/01 09:09:17;;;;;;;46.07;18.47;;;;;;;0.95;76.72;101485.34;126830;1092;104621;-80
2020/12/01 09:14:46;;;;;;;34.10;16.03;;;;;;;1.01;76.58;101483.30;127228;1092;103556;-81
2020/12/01 09:17:37;;;;;;;39.40;18.37;;;;;;;0.99;77.05;101480.58;127153;1092;102863;-76
2020/12/01 09:23:07;;;;;;;39.00;17.93;;;;;;;1.02;76.87;101483.44;126743;1095;103202;-76
2020/12/01 09:25:37;;;;;;;38.00;16.77;;;;;;;1.03;76.41;101480.09;125974;1095;104491;-76
2020/12/01 09:28:13;;;;;;;34.57;14.67;;;;;;;1.05;76.56;101470.79;126020;1096;103283;-77
2020/12/01 09:30:44;;;;;;;39.47;17.90;;;;;;;1.12;76.52;101472.23;125892;1095;104769;-80
2020/12/01 09:33:19;;;;;;;39.63;17.90;;;;;;;1.15;76.00;101484.54;126093;1095;104601;-79
2020/12/01 09:35:49;;;;;;;35.80;16.03;;;;;;;1.11;76.42;101470.44;126029;1096;104218;-82
2020/12/01 09:38:23;;;;;;;37.93;16.80;;;;;;;1.06;76.25;101451.94;125949;1094;104998;-81
2020/12/01 09:41:11;;;;;;;35.67;16.03;;;;;;;1.17;76.31;101457.13;126552;1096;103354;-77
2020/12/01 09:43:43;;;;;;;31.47;13.47;;;;;;;1.23;76.76;101471.53;126081;1095;104948;-80
2020/12/01 09:46:21;;;;;;;30.83;14.37;;;;;;;1.32;76.58;101450.73;126770;1095;102834;-81
2020/12/01 09:48:50;;;;;;;30.47;13.17;;;;;;;1.46;76.63;101451.94;125926;1096;104717;-80
2020/12/01 09:51:19;;;;;;;37.80;16.65;;;;;;;1.54;76.26;101435.43;126085;1095;105139;-80
2020/12/01 09:54:17;;;;;;;34.17;14.60;;;;;;;1.67;76.49;101434.80;126096;1094;104638;-83
2020/12/01 09:56:51;;;;;;;35.10;17.07;;;;;;;1.82;75.89;101431.70;126923;1093;104729;-80
2020/12/01 09:59:38;;;;;;;37.17;15.50;;;;;;;1.84;75.89;101430.15;128505;1092;102706;-83
2020/12/01 10:11:00;;;;;;;37.17;16.70;;;;;;;1.88;76.51;101425.36;126734;1095;103198;-83
2020/12/01 10:13:42;;;;;;;33.07;15.57;;;;;;;1.87;76.26;101428.75;126800;1095;103021;-84
2020/12/01 10:36:38;;;;;;;31.13;11.80;;;;;;;1.68;75.59;101423.66;126518;1098;104510;-82
2020/12/01 10:39:11;;;;;;;30.27;13.37;;;;;;;1.63;75.95;101430.13;126409;1098;104682;-81
2020/12/01 10:41:55;;;;;;;32.70;14.80;;;;;;;1.58;75.76;101434.01;126385;1098;104639;-78
2020/12/01 10:44:28;;;;;;;30.73;13.37;;;;;;;1.50;75.56;101430.75;126807;1095;104499;-79
2020/12/01 10:46:56;;;;;;;29.87;13.30;;;;;;;1.52;75.67;101425.72;127188;1092;104500;-82
2020/12/01 10:49:39;;;;;;;30.23;13.97;;;;;;;1.58;76.16;101426.25;127279;1092;103484;-83
2020/12/01 10:52:08;;;;;;;31.63;14.77;;;;;;;1.58;75.41;101423.66;127216;1092;104449;-82
2020/12/01 10:54:39;;;;;;;32.80;14.97;;;;;;;1.54;75.51;101424.16;128265;1094;102641;-81
2020/12/01 10:57:08;;;;;;;35.40;15.50;;;;;;;1.55;75.82;101425.98;127256;1092;104456;-80
2020/12/01 10:59:40;;;;;;;32.53;13.50;;;;;;;1.55;75.49;101426.87;127057;1092;102958;-81
2020/12/01 11:02:17;;;;;;;29.40;11.67;;;;;;;1.48;75.17;101424.55;127281;1092;104478;-76
2020/12/01 11:04:45;;;;;;;29.80;13.30;;;;;;;1.44;75.90;101420.77;126805;1094;104470;-81
2020/12/01 11:07:18;;;;;;;27.93;12.57;;;;;;;1.44;75.95;101410.42;127249;1092;104637;-84
2020/12/01 11:09:54;;;;;;;32.35;14.20;;;;;;;1.42;75.81;101404.22;127231;1094;104500;-81
2020/12/01 11:12:24;;;;;;;28.00;13.00;;;;;;;1.41;76.02;101404.98;128017;1092;102660;-82
2020/12/01 11:14:55;;;;;;;29.77;13.73;;;;;;;1.41;76.18;101406.67;126880;1093;103674;-84
2020/12/01 11:17:24;;;;;;;30.23;13.60;;;;;;;1.37;75.73;101394.23;127219;1092;103632;-83
2020/12/01 11:19:55;;;;;;;31.67;12.93;;;;;;;1.35;75.22;101394.11;126875;1094;104644;-84
2020/12/01 11:22:27;;;;;;;;;;;;;;;1.32;75.34;101387.77;126930;1095;105115;-81
2020/12/01 11:27:51;;;;;;;27.40;12.63;;;;;;;1.32;76.02;101391.25;126712;1095;103229;-82
2020/12/01 11:30:24;;;;;;;34.07;16.30;;;;;;;1.35;75.56;101400.97;126757;1095;103402;-81
2020/12/01 11:32:56;;;;;;;27.60;13.07;;;;;;;1.38;75.75;101402.13;126784;1096;105089;-81
2020/12/01 11:35:37;;;;;;;30.17;14.70;;;;;;;1.37;75.98;101408.10;126724;1095;103337;-79
2020/12/01 11:38:11;;;;;;;29.00;14.00;;;;;;;1.37;75.87;101417.52;125974;1095;104510;-80
2020/12/01 11:40:40;;;;;;;29.67;12.60;;;;;;;1.37;75.65;101414.93;126828;1095;103729;-81
2020/12/01 11:43:11;;;;;;;35.23;15.23;;;;;;;1.40;75.84;101410.02;126697;1095;105230;-85
2020/12/01 11:45:40;;;;;;;33.90;15.37;;;;;;;1.47;75.73;101403.73;126747;1095;104859;-84
2020/12/01 11:48:14;;;;;;;31.23;13.90;;;;;;;1.53;75.66;101406.84;127591;1095;104442;-81
2020/12/01 11:50:49;;;;;;;28.73;11.87;;;;;;;1.51;75.69;101408.37;126735;1095;104698;-80
2020/12/01 11:53:41;;;;;;;;;;;;;;;;;;;;;
2020/12/01 11:56:18;;;;;;;;;;;;;;;1.42;75.41;101404.22;126144;1095;104449;-79
2020/12/01 11:59:06;;;;;;;29.90;12.57;;;;;;;1.31;75.49;101381.70;126076;1095;103397;-79
2020/12/01 12:01:46;;;;;;;29.83;12.93;;;;;;;1.36;76.03;101402.80;126858;1095;104597;-82
2020/12/01 12:04:25;;;;;;;29.30;12.80;;;;;;;1.35;75.55;101391.52;126767;1095;104445;-81
2020/12/01 12:06:54;;;;;;;28.23;12.63;;;;;;;1.32;75.52;101399.01;126769;1095;103382;-78
2020/12/01 12:09:38;;;;;;;29.80;14.37;;;;;;;1.34;75.88;101391.39;126713;1095;104664;-81
2020/12/01 12:12:09;;;;;;;26.00;11.35;;;;;;;1.37;75.37;101391.66;126321;1095;103710;-77
2020/12/01 12:14:44;;;;;;;29.60;13.83;;;;;;;1.37;76.03;101395.17;126177;1095;103029;-81
2020/12/01 12:17:13;;;;;;;30.27;13.57;;;;;;;1.38;75.70;101390.89;126793;1095;103299;-81
2020/12/01 12:19:45;;;;;;;26.47;11.57;;;;;;;1.38;75.51;101396.06;126714;1095;104694;-78
2020/12/01 12:22:13;;;;;;;29.07;13.60;;;;;;;1.37;75.39;101395.17;127022;1092;103186;-76
2020/12/01 12:24:50;;;;;;;25.30;11.47;;;;;;;1.35;75.86;101380.28;126592;1092;104443;-79
2020/12/01 12:27:19;;;;;;;35.57;14.67;;;;;;;1.38;75.45;101386.61;126443;1092;104497;-79
2020/12/01 12:29:47;;;;;;;26.90;12.93;;;;;;;1.36;75.55;101393.34;126100;1094;103781;-77
2020/12/01 12:32:16;;;;;;;29.80;12.47;;;;;;;1.38;75.88;101389.20;126377;1093;103502;-77
2020/12/01 12:34:47;;;;;;;31.63;13.87;;;;;;;1.37;75.90;101382.23;126409;1094;104567;-79
2020/12/01 12:37:22;;;;;;;33.03;14.90;;;;;;;1.39;75.74;101383.27;126074;1094;103240;-81
2020/12/01 12:39:51;;;;;;;33.25;15.25;;;;;;;1.40;75.37;101390.27;125958;1093;103170;-74
2020/12/01 12:42:21;;;;;;;31.50;14.80;;;;;;;1.37;75.73;101387.41;126321;1092;104496;-80
2020/12/01 12:45:06;;;;;;;31.63;14.43;;;;;;;1.38;75.56;101390.89;126376;1092;104695;-81
2020/12/01 12:47:37;;;;;;;30.13;12.87;;;;;;;1.36;75.60;101395.93;126295;1092;104691;-77
2020/12/01 12:50:18;;;;;;;29.07;13.60;;;;;;;1.36;75.85;101392.45;126371;1092;104813;-77
2020/12/01 12:52:48;;;;;;;30.87;14.80;;;;;;;1.34;75.66;101387.14;127201;1092;104606;-78
2020/12/01 12:55:20;;;;;;;29.40;13.53;;;;;;;1.34;75.54;101389.73;127608;1092;103208;-80
2020/12/01 12:57:52;;;;;;;35.57;15.47;;;;;;;1.34;75.85;101399.14;126868;1092;104590;-78
2020/12/01 13:00:23;;;;;;;30.20;14.23;;;;;;;1.37;75.79;101395.17;126352;1094;103256;-80
2020/12/01 13:03:05;;;;;;;31.63;14.00;;;;;;;1.36;75.32;101393.34;128609;1092;103222;-79
2020/12/01 13:05:44;;;;;;;30.73;15.27;;;;;;;1.35;75.71;101407.03;128903;1092;102050;-81
2020/12/01 13:08:16;;;;;;;31.70;15.20;;;;;;;1.33;75.45;101403.42;127283;1091;104624;-78
2020/12/01 13:10:56;;;;;;;33.63;15.93;;;;;;;1.34;75.91;101394.91;126514;1092;103896;-79
2020/12/01 13:13:45;;;;;;;34.80;15.17;;;;;;;1.37;75.71;101397.75;128440;1092;102894;-82
2020/12/01 13:16:18;;;;;;;27.83;13.90;;;;;;;1.39;75.52;101408.23;127267;1092;104394;-80
2020/12/01 13:19:02;;;;;;;27.82;13.72;;;;;;;1.37;75.71;101400.34;127227;1092;104558;-79
2020/12/01 13:21:36;;;;;;;30.70;14.73;;;;;;;1.35;75.44;101396.69;127266;1092;104593;-79
2020/12/01 13:24:06;;;;;;;32.33;14.97;;;;;;;1.35;75.76;101400.97;126869;1094;104605;-83
2020/12/01 13:26:41;;;;;;;27.67;13.33;;;;;;;1.36;75.50;101395.03;127598;1092;104506;-82
2020/12/01 13:29:10;;;;;;;30.73;14.13;;;;;;;1.36;75.68;101408.86;126807;1095;104633;-79
2020/12/01 13:31:39;;;;;;;31.60;15.27;;;;;;;1.35;75.65;101401.86;125969;1095;103415;-79
2020/12/01 13:34:09;;;;;;;27.40;12.20;;;;;;;1.35;75.97;101407.03;126060;1095;103432;-78
2020/12/01 13:36:40;;;;;;;28.83;14.07;;;;;;;1.39;75.56;101408.23;126800;1095;104778;-80
2020/12/01 13:42:20;;;;;;;31.57;15.90;;;;;;;1.41;76.09;101404.98;127194;1095;103845;-80
2020/12/01 13:44:49;;;;;;;34.27;16.67;;;;;;;1.39;75.42;101403.95;126765;1096;103358;-80
2020/12/01 13:47:22;;;;;;;28.53;14.37;;;;;;;1.41;75.81;101402.39;127559;1095;103234;-79
2020/12/01 13:49:50;;;;;;;25.80;11.87;;;;;;;1.44;76.01;101402.66;126998;1095;103056;-79
2020/12/01 13:52:21;;;;;;;26.70;11.93;;;;;;;1.47;75.46;101408.90;125950;1096;104506;-80
2020/12/01 13:55:22;;;;;;;28.37;12.27;;;;;;;1.48;75.71;101402.92;127623;1095;104449;-81
2020/12/01 13:58:11;;;;;;;29.57;14.37;;;;;;;1.41;76.06;101396.33;126199;1095;104644;-81
2020/12/01 14:01:18;;;;;;;29.90;13.93;;;;;;;1.44;75.33;101407.84;126225;1095;103789;-80
2020/12/01 14:05:06;;;;;;;22.77;10.87;;;;;;;1.44;75.32;101419.87;126870;1095;103142;-82
2020/12/01 14:11:03;;;;;;;29.50;14.10;;;;;;;1.43;75.69;101406.05;126158;1095;103555;-76
2020/12/01 14:13:32;;;;;;;28.70;13.57;;;;;;;1.43;75.83;101407.70;126170;1096;104509;-80
2020/12/01 14:16:07;;;;;;;31.60;14.57;;;;;;;1.41;75.35;101406.67;126816;1096;102805;-83
2020/12/01 14:18:53;;;;;;;27.33;12.43;;;;;;;1.42;75.46;101404.22;127095;1098;104567;-79
2020/12/01 14:21:29;;;;;;;;;;;;;;;1.42;75.30;101406.81;126005;1098;104904;-82
2020/12/01 14:24:27;;;;;;;26.93;13.10;;;;;;;1.41;75.61;101404.09;126520;1099;105970;-78
2020/12/01 14:34:09;;;;;;;;;;;;;;;;;;;;;
2020/12/01 14:37:33;;;;;;;32.17;14.37;;;;;;;1.50;75.29;101416.92;126091;1101;103215;-85
2020/12/01 14:41:11;;;;;;;29.83;13.73;;;;;;;1.53;75.77;101422.36;125504;1101;104158;-79
2020/12/01 14:44:20;;;;;;;27.63;13.27;;;;;;;1.53;75.18;101423.26;125494;1101;102766;-78
2020/12/01 14:54:36;;;;;;;29.77;15.00;;;;;;;1.43;75.77;101411.22;125330;1102;104701;-80
2020/12/01 14:57:54;;;;;;;26.37;13.10;;;;;;;1.43;75.49;101418.98;126148;1102;104592;-82
2020/12/01 15:01:22;;;;;;;31.63;15.03;;;;;;;1.40;75.36;101415.20;126182;1101;104249;-80
2020/12/01 15:04:19;;;;;;;30.75;15.48;;;;;;;1.38;75.63;101409.89;125755;1098;104759;-79
2020/12/01 15:07:28;;;;;;;28.27;13.93;;;;;;;1.40;75.30;101402.27;126005;1098;103320;-78
2020/12/01 15:14:10;;;;;;;33.73;15.23;;;;;;;1.39;75.41;101403.95;125998;1098;103430;-77
2020/12/01 15:17:14;;;;;;;30.90;14.70;;;;;;;1.40;75.63;101405.78;126392;1095;102930;-78
2020/12/01 15:26:51;;;;;;;29.63;14.90;;;;;;;1.41;75.37;101407.56;126563;1092;104749;-79
2020/12/01 15:29:38;;;;;;;28.93;14.17;;;;;;;1.41;75.42;101411.84;126757;1096;104657;-79
2020/12/01 15:32:40;;;;;;;28.87;14.30;;;;;;;1.44;75.27;101412.11;126387;1096;105378;-79
2020/12/01 15:43:20;;;;;;;30.30;13.93;;;;;;;1.44;75.58;101417.29;125673;1100;105012;-78
2020/12/01 15:46:21;;;;;;;30.93;14.57;;;;;;;1.41;75.12;101422.20;125974;1101;104518;-77
2020/12/01 15:49:24;;;;;;;31.57;15.27;;;;;;;1.42;75.70;101405.91;125782;1101;104587;-75
2020/12/01 15:52:05;;;;;;;29.52;14.70;;;;;;;1.36;75.70;101398.52;125580;1101;103356;-76
2020/12/01 15:55:08;;;;;;;33.63;16.77;;;;;;;1.41;75.32;101404.98;125832;1101;103322;-75
2020/12/01 15:58:09;;;;;;;29.87;16.47;;;;;;;1.40;75.65;101403.20;126136;1101;102948;-80
2020/12/01 16:04:06;;;;;;;30.87;14.77;;;;;;;1.44;75.47;101404.36;126196;1098;104751;-79
2020/12/01 16:07:22;;;;;;;34.77;16.80;;;;;;;1.43;75.76;101406.05;126391;1096;104574;-78
2020/12/01 16:10:09;;;;;;;33.13;15.53;;;;;;;1.44;75.65;101425.94;126457;1093;104494;-77
2020/12/01 16:13:11;;;;;;;29.65;14.85;;;;;;;1.45;75.64;101426.87;126062;1094;104586;-78
2020/12/01 16:16:08;;;;;;;36.37;18.50;;;;;;;1.44;75.64;101431.12;126011;1094;103061;-78
2020/12/01 16:18:51;;;;;;;30.87;15.23;;;;;;;1.48;75.55;101433.97;126423;1092;103419;-79
2020/12/01 16:21:26;;;;;;;31.97;16.60;;;;;;;1.46;75.25;101432.94;126021;1094;103202;-75
2020/12/01 16:24:00;;;;;;;34.60;16.55;;;;;;;1.45;75.62;101437.22;126780;1093;105208;-77
2020/12/01 16:27:07;;;;;;;32.90;16.95;;;;;;;1.44;75.16;101432.80;126738;1094;103361;-76
2020/12/01 16:30:07;;;;;;;33.80;17.80;;;;;;;1.43;75.20;101430.98;126325;1095;103125;-75
2020/12/01 16:32:49;;;;;;;33.87;16.20;;;;;;;1.43;75.64;101434.50;126338;1095;103929;-75
2020/12/01 16:35:22;;;;;;;;;;;;;;;1.44;75.49;101433.70;126393;1095;103020;-76
2020/12/01 16:38:18;;;;;;;32.40;16.30;;;;;;;1.39;75.13;101431.51;126432;1095;103206;-76
2020/12/01 16:41:18;;;;;;;32.23;15.90;;;;;;;1.46;75.26;101431.25;126139;1095;104221;-76
2020/12/01 16:44:14;;;;;;;32.10;17.83;;;;;;;1.48;75.70;101428.80;126192;1095;103014;-75
2020/12/01 16:47:15;;;;;;;33.70;17.33;;;;;;;1.46;75.55;101436.42;126219;1095;104977;-76
2020/12/01 16:50:58;;;;;;;33.03;16.53;;;;;;;1.47;75.18;101439.94;126221;1096;104512;-75
2020/12/01 16:57:14;;;;;;;39.90;19.57;;;;;;;1.47;75.35;101437.35;126359;1095;102873;-76
2020/12/01 17:00:13;;;;;;;32.30;17.10;;;;;;;1.46;75.67;101435.53;126202;1095;104694;-77
2020/12/01 17:03:15;;;;;;;33.80;16.83;;;;;;;1.43;75.82;101436.16;126339;1095;103848;-76
2020/12/01 17:08:58;;;;;;;31.93;15.63;;;;;;;1.44;75.28;101431.12;126861;1092;103751;-76
2020/12/01 17:12:17;;;;;;;31.63;16.40;;;;;;;1.46;75.81;101415.73;126733;1092;103264;-75
2020/12/01 17:15:07;;;;;;;32.30;16.27;;;;;;;1.43;75.37;101424.15;126273;1094;104525;-76
2020/12/01 17:17:55;;;;;;;34.83;18.33;;;;;;;1.41;75.85;101422.20;126414;1094;104544;-76
2020/12/01 17:24:20;;;;;;;34.33;19.37;;;;;;;1.41;75.30;101443.78;125960;1094;105124;-77
2020/12/01 17:27:01;;;;;;;30.73;16.80;;;;;;;1.44;75.81;101443.15;126308;1092;104570;-76
2020/12/01 17:29:41;;;;;;;32.83;16.83;;;;;;;1.46;75.26;101439.01;126170;1094;103381;-76
2020/12/01 17:32:41;;;;;;;30.70;15.37;;;;;;;1.46;75.33;101445.88;126688;1092;103181;-76